sensor_id;sensor_type;location;lat;lon;timestamp;pressure;altitude;pressure_sealevel;temperature;humidity
47524;BME280;33253;42.144;25.884;2024-03-02T00:00:22;100156.03;;;8.18;100.00
47524;BME280;33253;42.144;25.884;2024-03-02T00:02:48;100156.22;;;8.22;100.00
47524;BME280;33253;42.144;25.884;2024-03-02T00:05:17;100157.16;;;8.24;100.00
47524;BME280;33253;42.144;25.884;2024-03-02T00:07:44;100161.59;;;8.29;100.00
47524;BME280;33253;42.144;25.884;2024-03-02T00:10:11;100156.69;;;8.35;100.00
47524;BME280;33253;42.144;25.884;2024-03-02T00:12:37;100157.78;;;8.40;100.00
47524;BME280;33253;42.144;25.884;2024-03-02T00:15:04;100155.03;;;8.35;100.00
47524;BME280;33253;42.144;25.884;2024-03-02T00:17:31;100158.47;;;8.36;100.00
47524;BME280;33253;42.144;25.884;2024-03-02T00:19:56;100149.22;;;8.41;100.00
47524;BME280;33253;42.144;25.884;2024-03-02T00:22:22;100146.00;;;8.45;100.00
47524;BME280;33253;42.144;25.884;2024-03-02T00:24:47;100141.00;;;8.48;100.00
47524;BME280;33253;42.144;25.884;2024-03-02T00:27:12;100138.91;;;8.39;100.00
47524;BME280;33253;42.144;25.884;2024-03-02T00:29:38;100128.75;;;8.42;100.00
47524;BME280;33253;42.144;25.884;2024-03-02T00:32:07;100131.44;;;8.46;100.00
47524;BME280;33253;42.144;25.884;2024-03-02T00:34:36;100134.75;;;8.43;100.00
47524;BME280;33253;42.144;25.884;2024-03-02T00:37:01;100137.22;;;8.40;100.00
47524;BME280;33253;42.144;25.884;2024-03-02T00:39:27;100132.44;;;8.28;100.00
47524;BME280;33253;42.144;25.884;2024-03-02T00:41:53;100130.72;;;8.29;100.00
47524;BME280;33253;42.144;25.884;2024-03-02T00:44:18;100129.38;;;8.16;100.00
47524;BME280;33253;42.144;25.884;2024-03-02T00:46:47;100120.78;;;8.15;100.00
47524;BME280;33253;42.144;25.884;2024-03-02T00:49:20;100124.41;;;8.20;100.00
47524;BME280;33253;42.144;25.884;2024-03-02T00:51:46;100122.81;;;8.22;100.00
47524;BME280;33253;42.144;25.884;2024-03-02T00:54:13;100123.72;;;8.24;100.00
47524;BME280;33253;42.144;25.884;2024-03-02T00:56:39;100112.72;;;8.29;100.00
47524;BME280;33253;42.144;25.884;2024-03-02T00:59:06;100113.63;;;8.29;100.00
47524;BME280;33253;42.144;25.884;2024-03-02T01:01:31;100104.34;;;8.33;100.00
47524;BME280;33253;42.144;25.884;2024-03-02T01:03:57;100109.78;;;8.40;100.00
47524;BME280;33253;42.144;25.884;2024-03-02T01:06:22;100102.81;;;8.38;100.00
47524;BME280;33253;42.144;25.884;2024-03-02T01:08:48;100101.19;;;8.40;100.00
47524;BME280;33253;42.144;25.884;2024-03-02T01:11:16;100096.16;;;8.43;100.00
47524;BME280;33253;42.144;25.884;2024-03-02T01:13:41;100099.44;;;8.39;100.00
47524;BME280;33253;42.144;25.884;2024-03-02T01:16:06;100105.59;;;8.42;100.00
47524;BME280;33253;42.144;25.884;2024-03-02T01:18:32;100100.56;;;8.46;100.00
47524;BME280;33253;42.144;25.884;2024-03-02T01:20:57;100106.50;;;8.45;100.00
47524;BME280;33253;42.144;25.884;2024-03-02T01:23:23;100102.34;;;8.47;100.00
47524;BME280;33253;42.144;25.884;2024-03-02T01:25:48;100098.69;;;8.41;100.00
47524;BME280;33253;42.144;25.884;2024-03-02T01:28:14;100101.19;;;8.40;100.00
47524;BME280;33253;42.144;25.884;2024-03-02T01:30:40;100102.03;;;8.39;100.00
47524;BME280;33253;42.144;25.884;2024-03-02T01:33:05;100099.81;;;8.48;100.00
47524;BME280;33253;42.144;25.884;2024-03-02T01:35:31;100097.31;;;8.50;100.00
47524;BME280;33253;42.144;25.884;2024-03-02T01:37:57;100110.66;;;8.41;100.00
47524;BME280;33253;42.144;25.884;2024-03-02T01:40:22;100108.97;;;8.41;100.00
47524;BME280;33253;42.144;25.884;2024-03-02T01:42:51;100112.63;;;8.47;100.00
47524;BME280;33253;42.144;25.884;2024-03-02T01:45:17;100101.59;;;8.49;100.00
47524;BME280;33253;42.144;25.884;2024-03-02T01:47:42;100112.94;;;8.54;100.00
47524;BME280;33253;42.144;25.884;2024-03-02T01:50:07;100109.69;;;8.58;100.00
47524;BME280;33253;42.144;25.884;2024-03-02T01:52:33;100103.13;;;8.46;100.00
47524;BME280;33253;42.144;25.884;2024-03-02T01:54:59;100097.53;;;8.35;100.00
47524;BME280;33253;42.144;25.884;2024-03-02T01:57:24;100094.31;;;8.39;100.00
47524;BME280;33253;42.144;25.884;2024-03-02T01:59:49;100091.06;;;8.45;100.00
47524;BME280;33253;42.144;25.884;2024-03-02T02:02:16;100089.53;;;8.48;100.00
47524;BME280;33253;42.144;25.884;2024-03-02T02:04:41;100090.66;;;8.55;100.00
47524;BME280;33253;42.144;25.884;2024-03-02T02:07:06;100090.78;;;8.58;100.00
47524;BME280;33253;42.144;25.884;2024-03-02T02:09:32;100091.47;;;8.54;100.00
47524;BME280;33253;42.144;25.884;2024-03-02T02:11:57;100082.00;;;8.53;100.00
47524;BME280;33253;42.144;25.884;2024-03-02T02:14:22;100081.25;;;8.55;100.00
47524;BME280;33253;42.144;25.884;2024-03-02T02:16:48;100086.28;;;8.52;100.00
47524;BME280;33253;42.144;25.884;2024-03-02T02:19:13;100090.53;;;8.52;100.00
47524;BME280;33253;42.144;25.884;2024-03-02T02:21:41;100082.72;;;8.49;100.00
47524;BME280;33253;42.144;25.884;2024-03-02T02:24:07;100089.41;;;8.45;100.00
47524;BME280;33253;42.144;25.884;2024-03-02T02:26:32;100079.78;;;8.41;100.00
47524;BME280;33253;42.144;25.884;2024-03-02T02:28:57;100085.59;;;8.35;100.00
47524;BME280;33253;42.144;25.884;2024-03-02T02:31:23;100084.78;;;8.36;100.00
47524;BME280;33253;42.144;25.884;2024-03-02T02:33:48;100083.06;;;8.37;100.00
47524;BME280;33253;42.144;25.884;2024-03-02T02:36:13;100083.75;;;8.33;100.00
47524;BME280;33253;42.144;25.884;2024-03-02T02:38:40;100083.38;;;8.23;100.00
47524;BME280;33253;42.144;25.884;2024-03-02T02:41:07;100086.66;;;8.19;100.00
47524;BME280;33253;42.144;25.884;2024-03-02T02:43:33;100090.03;;;8.18;100.00
47524;BME280;33253;42.144;25.884;2024-03-02T02:45:58;100083.84;;;8.13;100.00
47524;BME280;33253;42.144;25.884;2024-03-02T02:48:24;100079.56;;;8.14;100.00
47524;BME280;33253;42.144;25.884;2024-03-02T02:50:49;100078.38;;;8.05;100.00
47524;BME280;33253;42.144;25.884;2024-03-02T02:53:14;100080.00;;;8.03;100.00
47524;BME280;33253;42.144;25.884;2024-03-02T02:55:40;100075.50;;;7.98;100.00
47524;BME280;33253;42.144;25.884;2024-03-02T02:58:14;100073.06;;;8.01;100.00
47524;BME280;33253;42.144;25.884;2024-03-02T03:00:39;100068.88;;;8.03;100.00
47524;BME280;33253;42.144;25.884;2024-03-02T03:03:05;100070.69;;;8.05;100.00
47524;BME280;33253;42.144;25.884;2024-03-02T03:05:30;100071.13;;;8.16;100.00
47524;BME280;33253;42.144;25.884;2024-03-02T03:07:55;100076.56;;;8.24;100.00
47524;BME280;33253;42.144;25.884;2024-03-02T03:10:21;100078.31;;;8.25;100.00
47524;BME280;33253;42.144;25.884;2024-03-02T03:12:48;100079.38;;;8.30;100.00
47524;BME280;33253;42.144;25.884;2024-03-02T03:15:14;100081.06;;;8.30;100.00
47524;BME280;33253;42.144;25.884;2024-03-02T03:17:41;100082.00;;;8.32;100.00
47524;BME280;33253;42.144;25.884;2024-03-02T03:20:06;100089.00;;;8.36;100.00
47524;BME280;33253;42.144;25.884;2024-03-02T03:22:34;100088.22;;;8.37;100.00
47524;BME280;33253;42.144;25.884;2024-03-02T03:25:00;100083.63;;;8.30;100.00
47524;BME280;33253;42.144;25.884;2024-03-02T03:27:25;100084.00;;;8.39;100.00
47524;BME280;33253;42.144;25.884;2024-03-02T03:29:51;100084.00;;;8.39;100.00
47524;BME280;33253;42.144;25.884;2024-03-02T03:32:17;100077.97;;;8.38;100.00
47524;BME280;33253;42.144;25.884;2024-03-02T03:34:42;100076.28;;;8.39;100.00
47524;BME280;33253;42.144;25.884;2024-03-02T03:37:08;100069.38;;;8.38;100.00
47524;BME280;33253;42.144;25.884;2024-03-02T03:39:33;100077.22;;;8.41;100.00
47524;BME280;33253;42.144;25.884;2024-03-02T03:41:59;100081.59;;;8.43;100.00
47524;BME280;33253;42.144;25.884;2024-03-02T03:44:24;100084.78;;;8.36;100.00
47524;BME280;33253;42.144;25.884;2024-03-02T03:46:49;100084.00;;;8.39;100.00
47524;BME280;33253;42.144;25.884;2024-03-02T03:49:15;100080.06;;;8.26;100.00
47524;BME280;33253;42.144;25.884;2024-03-02T03:51:40;100069.84;;;8.28;100.00
47524;BME280;33253;42.144;25.884;2024-03-02T03:54:05;100065.56;;;8.28;100.00
47524;BME280;33253;42.144;25.884;2024-03-02T03:56:31;100074.47;;;8.36;100.00
47524;BME280;33253;42.144;25.884;2024-03-02T03:58:56;100073.66;;;8.37;100.00
47524;BME280;33253;42.144;25.884;2024-03-02T04:01:22;100064.25;;;8.38;100.00
47524;BME280;33253;42.144;25.884;2024-03-02T04:03:48;100055.78;;;8.40;100.00
47524;BME280;33253;42.144;25.884;2024-03-02T04:06:13;100062.72;;;8.43;100.00
47524;BME280;33253;42.144;25.884;2024-03-02T04:08:39;100047.19;;;8.40;100.00
47524;BME280;33253;42.144;25.884;2024-03-02T04:11:04;100063.00;;;8.49;100.00
47524;BME280;33253;42.144;25.884;2024-03-02T04:13:29;100065.34;;;8.45;100.00
47524;BME280;33253;42.144;25.884;2024-03-02T04:15:55;100059.28;;;8.42;100.00
47524;BME280;33253;42.144;25.884;2024-03-02T04:18:20;100059.47;;;8.47;100.00
47524;BME280;33253;42.144;25.884;2024-03-02T04:20:45;100066.50;;;8.51;100.00
47524;BME280;33253;42.144;25.884;2024-03-02T04:23:11;100068.38;;;8.55;100.00
47524;BME280;33253;42.144;25.884;2024-03-02T04:25:36;100072.06;;;8.62;100.00
47524;BME280;33253;42.144;25.884;2024-03-02T04:28:01;100078.66;;;8.55;100.00
47524;BME280;33253;42.144;25.884;2024-03-02T04:30:27;100072.56;;;8.53;100.00
47524;BME280;33253;42.144;25.884;2024-03-02T04:32:52;100066.81;;;8.59;100.00
47524;BME280;33253;42.144;25.884;2024-03-02T04:35:17;100067.75;;;8.61;100.00
47524;BME280;33253;42.144;25.884;2024-03-02T04:37:43;100068.66;;;8.63;100.00
47524;BME280;33253;42.144;25.884;2024-03-02T04:40:08;100065.19;;;8.61;100.00
47524;BME280;33253;42.144;25.884;2024-03-02T04:42:34;100060.91;;;8.62;100.00
47524;BME280;33253;42.144;25.884;2024-03-02T04:45:00;100068.00;;;8.67;100.00
47524;BME280;33253;42.144;25.884;2024-03-02T04:47:25;100068.09;;;8.70;100.00
47524;BME280;33253;42.144;25.884;2024-03-02T04:49:50;100073.19;;;8.69;100.00
47524;BME280;33253;42.144;25.884;2024-03-02T04:52:16;100075.81;;;8.70;100.00
47524;BME280;33253;42.144;25.884;2024-03-02T04:54:42;100076.56;;;8.68;100.00
47524;BME280;33253;42.144;25.884;2024-03-02T04:57:26;100081.78;;;8.69;100.00
47524;BME280;33253;42.144;25.884;2024-03-02T04:59:51;100084.34;;;8.69;100.00
47524;BME280;33253;42.144;25.884;2024-03-02T05:02:16;100080.19;;;8.73;100.00
47524;BME280;33253;42.144;25.884;2024-03-02T05:04:42;100074.09;;;8.71;100.00
47524;BME280;33253;42.144;25.884;2024-03-02T05:07:07;100077.28;;;8.64;100.00
47524;BME280;33253;42.144;25.884;2024-03-02T05:09:32;100078.09;;;8.63;100.00
47524;BME280;33253;42.144;25.884;2024-03-02T05:11:58;100081.47;;;8.62;100.00
47524;BME280;33253;42.144;25.884;2024-03-02T05:14:41;100086.63;;;8.62;100.00
47524;BME280;33253;42.144;25.884;2024-03-02T05:17:07;100087.50;;;8.62;100.00
47524;BME280;33253;42.144;25.884;2024-03-02T05:19:32;100083.09;;;8.60;100.00
47524;BME280;33253;42.144;25.884;2024-03-02T05:21:57;100076.97;;;8.56;100.00
47524;BME280;33253;42.144;25.884;2024-03-02T05:24:23;100078.66;;;8.55;100.00
47524;BME280;33253;42.144;25.884;2024-03-02T05:26:48;100075.38;;;8.60;100.00
47524;BME280;33253;42.144;25.884;2024-03-02T05:29:14;100072.91;;;8.61;100.00
47524;BME280;33253;42.144;25.884;2024-03-02T05:31:39;100074.81;;;8.67;100.00
47524;BME280;33253;42.144;25.884;2024-03-02T05:34:05;100070.56;;;8.67;100.00
47524;BME280;33253;42.144;25.884;2024-03-02T05:36:30;100073.00;;;8.64;100.00
47524;BME280;33253;42.144;25.884;2024-03-02T05:38:56;100076.34;;;8.62;100.00
47524;BME280;33253;42.144;25.884;2024-03-02T05:41:22;100069.66;;;8.67;100.00
47524;BME280;33253;42.144;25.884;2024-03-02T05:43:47;100076.66;;;8.71;100.00
47524;BME280;33253;42.144;25.884;2024-03-02T05:46:12;100072.47;;;8.73;100.00
47524;BME280;33253;42.144;25.884;2024-03-02T05:48:38;100069.91;;;8.73;100.00
47524;BME280;33253;42.144;25.884;2024-03-02T05:51:03;100077.66;;;8.74;100.00
47524;BME280;33253;42.144;25.884;2024-03-02T05:53:29;100081.94;;;8.74;100.00
47524;BME280;33253;42.144;25.884;2024-03-02T05:55:54;100087.16;;;8.76;100.00
47524;BME280;33253;42.144;25.884;2024-03-02T05:58:21;100077.66;;;8.74;100.00
47524;BME280;33253;42.144;25.884;2024-03-02T06:01:04;100095.06;;;8.80;100.00
47524;BME280;33253;42.144;25.884;2024-03-02T06:03:30;100089.91;;;8.80;100.00
47524;BME280;33253;42.144;25.884;2024-03-02T06:05:57;100079.63;;;8.80;100.00
47524;BME280;33253;42.144;25.884;2024-03-02T06:08:22;100078.72;;;8.80;100.00
47524;BME280;33253;42.144;25.884;2024-03-02T06:11:07;100085.72;;;8.82;100.00
47524;BME280;33253;42.144;25.884;2024-03-02T06:13:33;100081.38;;;8.81;100.00
47524;BME280;33253;42.144;25.884;2024-03-02T06:15:58;100075.28;;;8.79;100.00
47524;BME280;33253;42.144;25.884;2024-03-02T06:18:23;100086.44;;;8.80;100.00
47524;BME280;33253;42.144;25.884;2024-03-02T06:20:48;100095.91;;;8.81;100.00
47524;BME280;33253;42.144;25.884;2024-03-02T06:23:14;100089.84;;;8.79;100.00
47524;BME280;33253;42.144;25.884;2024-03-02T06:25:39;100092.47;;;8.80;100.00
47524;BME280;33253;42.144;25.884;2024-03-02T06:28:05;100088.88;;;8.75;100.00
47524;BME280;33253;42.144;25.884;2024-03-02T06:30:30;100096.72;;;8.80;100.00
47524;BME280;33253;42.144;25.884;2024-03-02T06:32:56;100102.66;;;8.77;100.00
47524;BME280;33253;42.144;25.884;2024-03-02T06:35:21;100086.56;;;8.83;100.00
47524;BME280;33253;42.144;25.884;2024-03-02T06:37:46;100091.00;;;8.87;100.00
47524;BME280;33253;42.144;25.884;2024-03-02T06:40:12;100090.47;;;8.96;100.00
47524;BME280;33253;42.144;25.884;2024-03-02T06:42:37;100086.53;;;9.05;100.00
47524;BME280;33253;42.144;25.884;2024-03-02T06:45:03;100085.63;;;9.03;100.00
47524;BME280;33253;42.144;25.884;2024-03-02T06:47:28;100091.75;;;9.07;100.00
47524;BME280;33253;42.144;25.884;2024-03-02T06:49:53;100083.34;;;9.11;100.00
47524;BME280;33253;42.144;25.884;2024-03-02T06:52:19;100070.31;;;9.08;100.00
47524;BME280;33253;42.144;25.884;2024-03-02T06:54:46;100075.97;;;8.98;100.00
47524;BME280;33253;42.144;25.884;2024-03-02T06:57:11;100081.88;;;8.95;100.00
47524;BME280;33253;42.144;25.884;2024-03-02T06:59:37;100086.25;;;8.98;100.00
47524;BME280;33253;42.144;25.884;2024-03-02T07:02:02;100106.91;;;8.99;100.00
47524;BME280;33253;42.144;25.884;2024-03-02T07:04:28;100122.91;;;8.90;100.00
47524;BME280;33253;42.144;25.884;2024-03-02T07:06:53;100110.84;;;8.89;100.00
47524;BME280;33253;42.144;25.884;2024-03-02T07:09:18;100112.66;;;8.92;100.00
47524;BME280;33253;42.144;25.884;2024-03-02T07:11:47;100100.38;;;8.85;100.00
47524;BME280;33253;42.144;25.884;2024-03-02T07:14:12;100102.34;;;8.92;100.00
47524;BME280;33253;42.144;25.884;2024-03-02T07:16:38;100105.00;;;8.94;100.00
47524;BME280;33253;42.144;25.884;2024-03-02T07:19:05;100094.09;;;9.01;100.00
47524;BME280;33253;42.144;25.884;2024-03-02T07:21:31;100111.25;;;9.00;100.00
47524;BME280;33253;42.144;25.884;2024-03-02T07:23:57;100100.53;;;9.12;100.00
47524;BME280;33253;42.144;25.884;2024-03-02T07:26:25;100081.19;;;9.23;100.00
47524;BME280;33253;42.144;25.884;2024-03-02T07:28:50;100089.97;;;9.29;100.00
47524;BME280;33253;42.144;25.884;2024-03-02T07:31:16;100099.28;;;9.25;100.00
47524;BME280;33253;42.144;25.884;2024-03-02T07:33:43;100111.94;;;9.19;100.00
47524;BME280;33253;42.144;25.884;2024-03-02T07:36:08;100108.50;;;9.18;100.00
47524;BME280;33253;42.144;25.884;2024-03-02T07:38:34;100101.13;;;9.29;100.00
47524;BME280;33253;42.144;25.884;2024-03-02T07:41:00;100108.28;;;9.36;100.00
47524;BME280;33253;42.144;25.884;2024-03-02T07:43:25;100098.91;;;9.38;100.00
47524;BME280;33253;42.144;25.884;2024-03-02T07:45:51;100095.66;;;9.44;100.00
47524;BME280;33253;42.144;25.884;2024-03-02T07:48:16;100103.28;;;9.41;100.00
47524;BME280;33253;42.144;25.884;2024-03-02T07:50:42;100107.50;;;9.15;100.00
47524;BME280;33253;42.144;25.884;2024-03-02T07:53:08;100099.91;;;9.19;100.00
47524;BME280;33253;42.144;25.884;2024-03-02T07:55:34;100104.53;;;9.28;100.00
47524;BME280;33253;42.144;25.884;2024-03-02T07:58:00;100101.09;;;9.28;100.00
47524;BME280;33253;42.144;25.884;2024-03-02T08:00:25;100104.69;;;9.33;100.00
47524;BME280;33253;42.144;25.884;2024-03-02T08:02:52;100106.41;;;9.32;100.00
47524;BME280;33253;42.144;25.884;2024-03-02T08:05:18;100108.91;;;9.31;100.00
47524;BME280;33253;42.144;25.884;2024-03-02T08:07:47;100110.44;;;9.26;100.00
47524;BME280;33253;42.144;25.884;2024-03-02T08:10:13;100101.25;;;9.32;100.00
47524;BME280;33253;42.144;25.884;2024-03-02T08:12:39;100105.09;;;9.44;100.00
47524;BME280;33253;42.144;25.884;2024-03-02T08:15:04;100099.13;;;9.45;100.00
47524;BME280;33253;42.144;25.884;2024-03-02T08:17:30;100094.44;;;9.59;100.00
47524;BME280;33253;42.144;25.884;2024-03-02T08:19:55;100087.09;;;9.69;100.00
47524;BME280;33253;42.144;25.884;2024-03-02T08:22:21;100086.63;;;9.81;100.00
47524;BME280;33253;42.144;25.884;2024-03-02T08:24:46;100087.91;;;9.94;100.00
47524;BME280;33253;42.144;25.884;2024-03-02T08:27:12;100096.97;;;10.09;100.00
47524;BME280;33253;42.144;25.884;2024-03-02T08:29:37;100097.19;;;10.15;100.00
47524;BME280;33253;42.144;25.884;2024-03-02T08:32:03;100095.47;;;10.15;100.00
47524;BME280;33253;42.144;25.884;2024-03-02T08:34:28;100095.78;;;10.25;100.00
47524;BME280;33253;42.144;25.884;2024-03-02T08:36:54;100096.56;;;10.22;100.00
47524;BME280;33253;42.144;25.884;2024-03-02T08:39:19;100106.94;;;10.24;100.00
47524;BME280;33253;42.144;25.884;2024-03-02T08:41:45;100102.59;;;10.23;100.00
47524;BME280;33253;42.144;25.884;2024-03-02T08:44:11;100103.53;;;10.25;100.00
47524;BME280;33253;42.144;25.884;2024-03-02T08:46:38;100108.94;;;10.07;100.00
47524;BME280;33253;42.144;25.884;2024-03-02T08:49:03;100108.81;;;9.76;100.00
47524;BME280;33253;42.144;25.884;2024-03-02T08:51:30;100106.31;;;9.79;100.00
47524;BME280;33253;42.144;25.884;2024-03-02T08:53:57;100106.94;;;9.72;100.00
47524;BME280;33253;42.144;25.884;2024-03-02T08:56:23;100120.63;;;9.69;100.00
47524;BME280;33253;42.144;25.884;2024-03-02T08:58:49;100112.19;;;9.75;100.00
47524;BME280;33253;42.144;25.884;2024-03-02T09:01:14;100109.63;;;9.75;100.00
47524;BME280;33253;42.144;25.884;2024-03-02T09:03:41;100105.19;;;9.71;100.00
47524;BME280;33253;42.144;25.884;2024-03-02T09:06:09;100102.97;;;9.82;100.00
47524;BME280;33253;42.144;25.884;2024-03-02T09:08:34;100107.66;;;9.94;100.00
47524;BME280;33253;42.144;25.884;2024-03-02T09:11:01;100103.31;;;9.93;100.00
47524;BME280;33253;42.144;25.884;2024-03-02T09:13:27;100101.78;;;9.98;100.00
47524;BME280;33253;42.144;25.884;2024-03-02T09:15:52;100094.56;;;10.13;100.00
47524;BME280;33253;42.144;25.884;2024-03-02T09:18:17;100099.91;;;10.19;100.00
47524;BME280;33253;42.144;25.884;2024-03-02T09:20:43;100096.06;;;10.34;100.00
47524;BME280;33253;42.144;25.884;2024-03-02T09:23:08;100093.19;;;10.50;100.00
47524;BME280;33253;42.144;25.884;2024-03-02T09:25:33;100105.63;;;10.64;100.00
47524;BME280;33253;42.144;25.884;2024-03-02T09:27:59;100104.22;;;10.74;100.00
47524;BME280;33253;42.144;25.884;2024-03-02T09:30:24;100110.31;;;10.76;100.00
47524;BME280;33253;42.144;25.884;2024-03-02T09:32:50;100109.59;;;10.81;100.00
47524;BME280;33253;42.144;25.884;2024-03-02T09:35:15;100112.50;;;10.92;100.00
47524;BME280;33253;42.144;25.884;2024-03-02T09:37:42;100114.44;;;10.99;100.00
47524;BME280;33253;42.144;25.884;2024-03-02T09:40:07;100116.38;;;11.07;100.00
47524;BME280;33253;42.144;25.884;2024-03-02T09:42:33;100116.56;;;11.13;100.00
47524;BME280;33253;42.144;25.884;2024-03-02T09:44:58;100114.06;;;11.16;100.00
47524;BME280;33253;42.144;25.884;2024-03-02T09:47:24;100112.66;;;11.27;100.00
47524;BME280;33253;42.144;25.884;2024-03-02T09:49:49;100113.53;;;11.28;100.00
47524;BME280;33253;42.144;25.884;2024-03-02T09:52:14;100115.38;;;11.32;100.00
47524;BME280;33253;42.144;25.884;2024-03-02T09:54:41;100105.16;;;11.37;100.00
47524;BME280;33253;42.144;25.884;2024-03-02T09:57:06;100111.31;;;11.40;100.00
47524;BME280;33253;42.144;25.884;2024-03-02T09:59:32;100107.06;;;11.44;100.00
47524;BME280;33253;42.144;25.884;2024-03-02T10:02:01;100103.72;;;11.46;100.00
47524;BME280;33253;42.144;25.884;2024-03-02T10:04:28;100098.75;;;11.54;100.00
47524;BME280;33253;42.144;25.884;2024-03-02T10:07:12;100106.50;;;11.54;100.00
47524;BME280;33253;42.144;25.884;2024-03-02T10:09:38;100106.47;;;11.53;100.00
47524;BME280;33253;42.144;25.884;2024-03-02T10:12:04;100092.00;;;11.59;100.00
47524;BME280;33253;42.144;25.884;2024-03-02T10:14:29;100086.16;;;11.67;100.00
47524;BME280;33253;42.144;25.884;2024-03-02T10:16:55;99970.50;;;10.94;100.00
47524;BME280;33253;42.144;25.884;2024-03-02T10:19:26;100084.78;;;11.81;100.00
47524;BME280;33253;42.144;25.884;2024-03-02T10:21:52;100085.91;;;11.91;100.00
47524;BME280;33253;42.144;25.884;2024-03-02T10:24:18;100087.72;;;11.95;100.00
47524;BME280;33253;42.144;25.884;2024-03-02T10:26:44;100084.31;;;11.96;100.00
47524;BME280;33253;42.144;25.884;2024-03-02T10:29:09;100079.44;;;12.07;100.00
47524;BME280;33253;42.144;25.884;2024-03-02T10:31:39;100082.84;;;12.06;100.00
47524;BME280;33253;42.144;25.884;2024-03-02T10:34:05;100078.47;;;12.03;100.00
47524;BME280;33253;42.144;25.884;2024-03-02T10:36:31;100072.50;;;12.06;100.00
47524;BME280;33253;42.144;25.884;2024-03-02T10:38:57;100058.19;;;12.20;100.00
47524;BME280;33253;42.144;25.884;2024-03-02T10:41:24;100056.59;;;12.25;100.00
47524;BME280;33253;42.144;25.884;2024-03-02T10:43:54;100050.56;;;12.26;100.00
47524;BME280;33253;42.144;25.884;2024-03-02T10:46:26;100048.06;;;12.31;100.00
47524;BME280;33253;42.144;25.884;2024-03-02T10:48:53;100037.94;;;12.40;100.00
47524;BME280;33253;42.144;25.884;2024-03-02T10:51:18;100041.31;;;12.36;100.00
47524;BME280;33253;42.144;25.884;2024-03-02T10:53:43;100021.13;;;12.21;100.00
47524;BME280;33253;42.144;25.884;2024-03-02T10:56:10;100021.03;;;12.18;100.00
47524;BME280;33253;42.144;25.884;2024-03-02T10:58:38;100011.22;;;12.03;100.00
47524;BME280;33253;42.144;25.884;2024-03-02T11:01:04;100019.88;;;12.04;100.00
47524;BME280;33253;42.144;25.884;2024-03-02T11:03:31;100026.88;;;12.09;100.00
47524;BME280;33253;42.144;25.884;2024-03-02T11:05:58;100039.94;;;12.14;100.00
47524;BME280;33253;42.144;25.884;2024-03-02T11:08:24;100048.59;;;12.16;100.00
47524;BME280;33253;42.144;25.884;2024-03-02T11:10:52;100046.78;;;12.12;100.00
47524;BME280;33253;42.144;25.884;2024-03-02T11:13:22;100041.84;;;12.21;100.00
47524;BME280;33253;42.144;25.884;2024-03-02T11:15:49;100041.03;;;12.24;100.00
47524;BME280;33253;42.144;25.884;2024-03-02T11:18:17;100037.56;;;12.25;100.00
47524;BME280;33253;42.144;25.884;2024-03-02T11:20:42;100044.56;;;12.27;100.00
47524;BME280;33253;42.144;25.884;2024-03-02T11:23:09;100042.13;;;12.34;100.00
47524;BME280;33253;42.144;25.884;2024-03-02T11:25:34;100036.88;;;12.32;100.00
47524;BME280;33253;42.144;25.884;2024-03-02T11:28:04;100039.47;;;12.32;100.00
47524;BME280;33253;42.144;25.884;2024-03-02T11:33:01;100036.00;;;12.32;100.00
47524;BME280;33253;42.144;25.884;2024-03-02T11:35:36;100034.28;;;12.32;100.00
47524;BME280;33253;42.144;25.884;2024-03-02T11:38:02;100023.91;;;12.30;100.00
47524;BME280;33253;42.144;25.884;2024-03-02T11:40:28;100033.34;;;12.28;100.00
47524;BME280;33253;42.144;25.884;2024-03-02T11:42:54;100033.41;;;12.30;100.00
47524;BME280;33253;42.144;25.884;2024-03-02T11:45:26;100028.78;;;12.17;100.00
47524;BME280;33253;42.144;25.884;2024-03-02T11:47:55;100031.34;;;12.15;100.00
47524;BME280;33253;42.144;25.884;2024-03-02T11:50:29;100028.59;;;12.09;100.00
47524;BME280;33253;42.144;25.884;2024-03-02T11:52:55;100020.84;;;12.09;100.00
47524;BME280;33253;42.144;25.884;2024-03-02T11:55:21;100029.41;;;12.06;100.00
47524;BME280;33253;42.144;25.884;2024-03-02T11:57:46;100024.94;;;12.01;100.00
47524;BME280;33253;42.144;25.884;2024-03-02T12:00:19;100030.00;;;11.96;100.00
47524;BME280;33253;42.144;25.884;2024-03-02T12:02:59;100026.59;;;11.97;100.00
47524;BME280;33253;42.144;25.884;2024-03-02T12:05:24;100019.75;;;11.99;100.00
47524;BME280;33253;42.144;25.884;2024-03-02T12:07:54;100018.09;;;12.03;100.00
47524;BME280;33253;42.144;25.884;2024-03-02T12:10:20;100020.69;;;12.03;100.00
47524;BME280;33253;42.144;25.884;2024-03-02T12:12:45;100014.72;;;12.05;100.00
47524;BME280;33253;42.144;25.884;2024-03-02T12:15:10;100009.44;;;12.01;100.00
47524;BME280;33253;42.144;25.884;2024-03-02T12:17:36;100010.28;;;12.01;100.00
47524;BME280;33253;42.144;25.884;2024-03-02T12:20:04;100011.22;;;12.05;100.00
47524;BME280;33253;42.144;25.884;2024-03-02T12:22:32;100006.16;;;12.08;100.00
47524;BME280;33253;42.144;25.884;2024-03-02T12:24:57;100006.16;;;12.08;100.00
47524;BME280;33253;42.144;25.884;2024-03-02T12:27:23;100000.84;;;12.03;100.00
47524;BME280;33253;42.144;25.884;2024-03-02T12:29:48;99997.44;;;12.04;100.00
47524;BME280;33253;42.144;25.884;2024-03-02T12:32:13;100000.63;;;11.94;100.00
47524;BME280;33253;42.144;25.884;2024-03-02T12:34:39;99998.22;;;12.00;100.00